Time;durP1;ratioP1;P1;durP2;ratioP2;P2;SDS_P1;SDS_P2;PMS_P1;PMS_P2;Temp;Humidity;BMP_temperature;BMP_pressure;BME280_temperature;BME280_humidity;BME280_pressure;Samples;Min_cycle;Max_cycle;Signal;HPM_P1;HPM_P2
2023/01/10 00:00:06;;;;;;;;;;;;;;;;;;1047844;28;3392;-60
2023/01/10 00:00:56;;;;;;;;;;;;;;;;;;1048631;28;5151;-60
2023/01/10 00:01:31;;;;;;;;;;;;;;;;;;1047465;28;4008;-61
2023/01/10 00:02:01;;;;;;;;;;;;;;;;;;1050099;28;2887;-61
2023/01/10 00:02:31;;;;;;;;;;;;;;;;;;1050122;28;3969;-60
2023/01/10 00:03:07;;;;;;;;;;;;;;;;;;1048701;28;2834;-60
2023/01/10 00:03:37;;;;;;;;;;;;;;;;;;1047453;28;4092;-60
2023/01/10 00:04:07;;;;;;;;;;;;;;;;;;1050473;28;1573;-60
2023/01/10 00:04:37;;;;;;;;;;;;;;;;;;1048664;28;3914;-60
2023/01/10 00:05:08;;;;;;;;;;;;;;;;;;1050460;28;4058;-60
2023/01/10 00:05:38;;;;;;;;;;;;;;;;;;1048937;28;2413;-61
2023/01/10 00:06:09;;;;;;;;;;;;;;;;;;1047956;28;4617;-60
2023/01/10 00:06:39;;;;;;;;;;;;;;;;;;1047489;28;1576;-61
2023/01/10 00:07:09;;;;;;;;;;;;;;;;;;1045748;28;4099;-60
2023/01/10 00:07:39;;;;;;;;;;;;;;;;;;1049572;28;2932;-60
2023/01/10 00:08:13;;;;;;;;;;;;;;;;;;1046599;28;4037;-60
2023/01/10 00:08:43;;;;;;;;;;;;;;;;;;1049350;28;3030;-60
2023/01/10 00:09:14;;;;;;;;;;;;;;;;;;1048494;28;4413;-60
2023/01/10 00:09:44;;;;;;;;;;;;;;;;;;1048639;28;4844;-59
2023/01/10 00:10:14;;;;;;;;;;;;;;;;;;1046862;28;3817;-60
2023/01/10 00:10:44;;;;;;;;;;;;;;;;;;1050697;28;3340;-60
2023/01/10 00:13:41;;;;;;;;;;;;;;;;;;1048148;28;3783;-61
2023/01/10 00:14:12;;;;;;;;;;;;;;;;;;1047842;28;3898;-61
2023/01/10 00:14:42;;;;;;;;;;;;;;;;;;1048555;28;2673;-60
2023/01/10 00:15:12;;;;;;;;;;;;;;;;;;1048827;28;4457;-60
2023/01/10 00:15:43;;;;;;;;;;;;;;;;;;1048990;28;2806;-60
2023/01/10 00:16:13;;;;;;;;;;;;;;;;;;1048613;28;3903;-60
2023/01/10 00:16:43;;;;;;;;;;;;;;;;;;1049199;28;4314;-60
2023/01/10 00:17:14;;;;;;;;;;;;;;;;;;1051420;28;4263;-61
2023/01/10 00:17:44;;;;;;;;;;;;;;;;;;1049409;28;2740;-59
2023/01/10 00:18:14;;;;;;;;;;;;;;;;;;1048524;28;4071;-60
2023/01/10 00:18:44;;;;;;;;;;;;;;;;;;1047094;28;2919;-61
2023/01/10 00:19:15;;;;;;;;;;;;;;;;;;1049871;28;4281;-59
2023/01/10 00:19:45;;;;;;;;;;;;;;;;;;1046962;28;2826;-61
2023/01/10 00:20:15;;;;;;;;;;;;;;;;;;1047178;28;3887;-60
2023/01/10 00:20:46;;;;;;;;;;;;;;;;;;1047447;28;3067;-61
2023/01/10 00:21:17;;;;;;;;;;;;;;;;;;1049347;28;3791;-60
2023/01/10 00:21:48;;;;;;;;;;;;;;;;;;1049314;28;2827;-61
2023/01/10 00:22:23;;;;;;;;;;;;;;;;;;1045790;28;3765;-60
2023/01/10 00:22:54;;;;;;;;;;;;;;;;;;1053354;28;3164;-61
2023/01/10 00:23:26;;;;;;;;;;;;;;;;;;1054640;28;4380;-61
2023/01/10 00:24:07;;;;;;;;;;;;;;;;;;1048861;28;2948;-61
2023/01/10 00:24:38;;;;;;;;;;;;;;;;;;1048630;28;3917;-60
2023/01/10 00:25:08;;;;;;;;;;;;;;;;;;1048271;28;3990;-60
2023/01/10 00:25:39;;;;;;;;;;;;;;;;;;1048222;28;2944;-60
2023/01/10 00:26:10;;;;;;;;;;;;;;;;;;1048300;28;3892;-61
2023/01/10 00:26:40;;;;;;;;;;;;;;;;;;1048057;28;1958;-60
2023/01/10 00:27:19;;;;;;;;;;;;;;;;;;1046700;28;4364;-60
2023/01/10 00:28:18;;;;;;;;;;;;;;;;;;1048668;28;2805;-60
2023/01/10 00:28:50;;;;;;;;;;;;;;;;;;1048260;28;3684;-61
2023/01/10 00:29:22;;;;;;;;;;;;;;;;;;1047851;28;3783;-60
2023/01/10 00:29:53;;;;;;;;;;;;;;;;;;1048429;28;2387;-61
2023/01/10 00:30:23;;;;;;;;;;;;;;;;;;1049911;28;3959;-60
2023/01/10 00:31:00;;;;;;;;;;;;;;;;;;1050647;28;2814;-61
2023/01/10 00:31:30;;;;;;;;;;;;;;;;;;1048818;28;3848;-60
2023/01/10 00:32:00;;;;;;;;;;;;;;;;;;1047142;28;3233;-60
2023/01/10 00:32:31;;;;;;;;;;;;;;;;;;1047687;28;4452;-60
2023/01/10 00:33:03;;;;;;;;;;;;;;;;;;1049846;28;2652;-61
2023/01/10 00:33:33;;;;;;;;;;;;;;;;;;1045583;28;3996;-60
2023/01/10 00:34:05;;;;;;;;;;;;;;;;;;1050413;28;2481;-60
2023/01/10 00:34:35;;;;;;;;;;;;;;;;;;1046784;28;3916;-59
2023/01/10 00:35:06;;;;;;;;;;;;;;;;;;1047335;28;2888;-60
2023/01/10 00:35:36;;;;;;;;;;;;;;;;;;1047599;28;3892;-62
2023/01/10 00:36:07;;;;;;;;;;;;;;;;;;1049869;28;2595;-60
2023/01/10 00:36:37;;;;;;;;;;;;;;;;;;1047098;28;4101;-61
2023/01/10 00:37:07;;;;;;;;;;;;;;;;;;1049080;28;4399;-61
2023/01/10 00:37:38;;;;;;;;;;;;;;;;;;1051053;28;1678;-60
2023/01/10 00:38:09;;;;;;;;;;;;;;;;;;1048559;28;3987;-61
2023/01/10 00:38:39;;;;;;;;;;;;;;;;;;1048814;28;2371;-60
2023/01/10 00:39:13;;;;;;;;;;;;;;;;;;1051347;28;4025;-61
2023/01/10 00:39:43;;;;;;;;;;;;;;;;;;1049233;28;2520;-60
2023/01/10 00:40:13;;;;;;;;;;;;;;;;;;1048845;28;4397;-60
2023/01/10 00:40:44;;;;;;;;;;;;;;;;;;1049114;28;2361;-61
2023/01/10 00:43:58;;;;;;;;;;;;;;;;;;1051630;28;3898;-60
2023/01/10 00:44:35;;;;;;;;;;;;;;;;;;1051303;28;3885;-61
2023/01/10 00:45:05;;;;;;;;;;;;;;;;;;1048612;28;2447;-60
2023/01/10 00:45:36;;;;;;;;;;;;;;;;;;1050412;28;3895;-60
2023/01/10 00:46:06;;;;;;;;;;;;;;;;;;1048731;28;2460;-60
2023/01/10 00:46:37;;;;;;;;;;;;;;;;;;1048265;28;4295;-60
2023/01/10 00:47:07;;;;;;;;;;;;;;;;;;1049187;28;2805;-61
2023/01/10 00:47:37;;;;;;;;;;;;;;;;;;1049634;28;3703;-60
2023/01/10 00:48:07;;;;;;;;;;;;;;;;;;1047355;28;4011;-60
2023/01/10 00:48:38;;;;;;;;;;;;;;;;;;1047227;28;1956;-61
2023/01/10 00:49:10;;;;;;;;;;;;;;;;;;1048356;28;4281;-60
2023/01/10 00:49:41;;;;;;;;;;;;;;;;;;1048864;28;2196;-60
2023/01/10 00:50:11;;;;;;;;;;;;;;;;;;1049383;28;4121;-61
2023/01/10 00:50:42;;;;;;;;;;;;;;;;;;1051187;28;1395;-61
2023/01/10 00:51:12;;;;;;;;;;;;;;;;;;1047751;28;3808;-61
2023/01/10 00:51:43;;;;;;;;;;;;;;;;;;1049478;28;2904;-61
2023/01/10 00:52:13;;;;;;;;;;;;;;;;;;1049469;28;4063;-60
2023/01/10 00:52:44;;;;;;;;;;;;;;;;;;1048498;28;3090;-60
2023/01/10 00:53:14;;;;;;;;;;;;;;;;;;1049769;28;4040;-60
2023/01/10 00:53:45;;;;;;;;;;;;;;;;;;1048607;28;2921;-60
2023/01/10 00:54:15;;;;;;;;;;;;;;;;;;1047932;28;3886;-60
2023/01/10 00:54:45;;;;;;;;;;;;;;;;;;1047763;28;2968;-62
2023/01/10 00:55:22;;;;;;;;;;;;;;;;;;1049286;28;3808;-60
2023/01/10 00:55:53;;;;;;;;;;;;;;;;;;1049280;28;2782;-59
2023/01/10 00:56:23;;;;;;;;;;;;;;;;;;1047381;28;4388;-60
2023/01/10 00:56:54;;;;;;;;;;;;;;;;;;1048301;28;2933;-60
2023/01/10 00:57:24;;;;;;;;;;;;;;;;;;1047571;28;4091;-60
2023/01/10 00:57:54;;;;;;;;;;;;;;;;;;1050543;28;4644;-60
2023/01/10 00:58:24;;;;;;;;;;;;;;;;;;1050284;28;4483;-60
2023/01/10 00:58:55;;;;;;;;;;;;;;;;;;1047305;28;2093;-61
2023/01/10 00:59:25;;;;;;;;;;;;;;;;;;1048238;28;4020;-61
2023/01/10 00:59:55;;;;;;;;;;;;;;;;;;1048458;28;2770;-61
2023/01/10 01:00:26;;;;;;;;;;;;;;;;;;1048868;28;4142;-60
2023/01/10 01:00:56;;;;;;;;;;;;;;;;;;1048169;28;2746;-60
2023/01/10 01:01:27;;;;;;;;;;;;;;;;;;1048655;28;3820;-60
2023/01/10 01:01:57;;;;;;;;;;;;;;;;;;1047848;28;2946;-61
2023/01/10 01:02:27;;;;;;;;;;;;;;;;;;1048381;28;4382;-61
2023/01/10 01:02:57;;;;;;;;;;;;;;;;;;1047952;28;3047;-60
2023/01/10 01:03:27;;;;;;;;;;;;;;;;;;1046843;28;3887;-61
2023/01/10 01:04:01;;;;;;;;;;;;;;;;;;1049904;28;2415;-60
2023/01/10 01:04:33;;;;;;;;;;;;;;;;;;1050588;28;3793;-60
2023/01/10 01:05:03;;;;;;;;;;;;;;;;;;1049586;28;2283;-61
2023/01/10 01:05:39;;;;;;;;;;;;;;;;;;1049803;28;3779;-61
2023/01/10 01:06:09;;;;;;;;;;;;;;;;;;1046072;28;4114;-59
2023/01/10 01:06:39;;;;;;;;;;;;;;;;;;1045818;28;2781;-61
2023/01/10 01:07:09;;;;;;;;;;;;;;;;;;1046096;28;4048;-60
2023/01/10 01:07:39;;;;;;;;;;;;;;;;;;1048679;28;3132;-61
2023/01/10 01:08:10;;;;;;;;;;;;;;;;;;1048604;28;4021;-61
2023/01/10 01:08:41;;;;;;;;;;;;;;;;;;1047058;28;2937;-61
2023/01/10 01:09:11;;;;;;;;;;;;;;;;;;1048333;28;5465;-60
2023/01/10 01:10:31;;;;;;;;;;;;;;;;;;1049228;28;4028;-60
2023/01/10 01:11:01;;;;;;;;;;;;;;;;;;1048682;28;2969;-60
2023/01/10 01:11:32;;;;;;;;;;;;;;;;;;1047238;28;3786;-60
2023/01/10 01:12:02;;;;;;;;;;;;;;;;;;1049012;28;2964;-60
2023/01/10 01:12:32;;;;;;;;;;;;;;;;;;1047372;28;4046;-61
2023/01/10 01:13:07;;;;;;;;;;;;;;;;;;1047684;28;1979;-60
2023/01/10 01:13:37;;;;;;;;;;;;;;;;;;1045856;28;3865;-60
2023/01/10 01:14:08;;;;;;;;;;;;;;;;;;1046365;28;3998;-61
2023/01/10 01:14:38;;;;;;;;;;;;;;;;;;1047360;28;2650;-60
2023/01/10 01:15:08;;;;;;;;;;;;;;;;;;1043597;28;3926;-60
2023/01/10 01:15:39;;;;;;;;;;;;;;;;;;1044411;28;3037;-60
2023/01/10 01:16:09;;;;;;;;;;;;;;;;;;1049207;28;4052;-61
2023/01/10 01:16:39;;;;;;;;;;;;;;;;;;1048140;28;2784;-61
2023/01/10 01:17:09;;;;;;;;;;;;;;;;;;1049675;28;4008;-60
2023/01/10 01:17:40;;;;;;;;;;;;;;;;;;1048260;28;2903;-61
2023/01/10 01:18:14;;;;;;;;;;;;;;;;;;1046978;28;4138;-60
2023/01/10 01:18:44;;;;;;;;;;;;;;;;;;1047040;28;3026;-61
2023/01/10 01:19:14;;;;;;;;;;;;;;;;;;1047750;28;4517;-61
2023/01/10 01:19:45;;;;;;;;;;;;;;;;;;1049601;28;2912;-60
2023/01/10 01:20:15;;;;;;;;;;;;;;;;;;1047808;28;4050;-61
2023/01/10 01:20:46;;;;;;;;;;;;;;;;;;1048658;28;3028;-60
2023/01/10 01:21:16;;;;;;;;;;;;;;;;;;1046890;28;4409;-60
2023/01/10 01:21:46;;;;;;;;;;;;;;;;;;1047721;28;1681;-61
2023/01/10 01:22:17;;;;;;;;;;;;;;;;;;1047927;28;3899;-60
2023/01/10 01:22:47;;;;;;;;;;;;;;;;;;1049723;28;2365;-60
2023/01/10 01:23:17;;;;;;;;;;;;;;;;;;1048880;28;4261;-60
2023/01/10 01:23:47;;;;;;;;;;;;;;;;;;1048044;28;3002;-59
2023/01/10 01:24:20;;;;;;;;;;;;;;;;;;1047883;28;3882;-61
2023/01/10 01:24:50;;;;;;;;;;;;;;;;;;1048898;28;2987;-61
2023/01/10 01:25:20;;;;;;;;;;;;;;;;;;1049301;28;4262;-60
2023/01/10 01:25:51;;;;;;;;;;;;;;;;;;1051515;28;1647;-60
2023/01/10 01:26:24;;;;;;;;;;;;;;;;;;1048216;28;3770;-60
2023/01/10 01:26:55;;;;;;;;;;;;;;;;;;1048839;28;2774;-60
2023/01/10 01:27:25;;;;;;;;;;;;;;;;;;1049537;28;3773;-60
2023/01/10 01:27:55;;;;;;;;;;;;;;;;;;1051778;28;1980;-60
2023/01/10 01:28:25;;;;;;;;;;;;;;;;;;1050532;28;3766;-60
2023/01/10 01:28:56;;;;;;;;;;;;;;;;;;1048915;28;3030;-60
2023/01/10 01:29:26;;;;;;;;;;;;;;;;;;1049905;28;4085;-60
2023/01/10 01:29:56;;;;;;;;;;;;;;;;;;1050885;28;2616;-60
2023/01/10 01:30:26;;;;;;;;;;;;;;;;;;1050456;28;4021;-61
2023/01/10 01:30:57;;;;;;;;;;;;;;;;;;1048174;28;3194;-61
2023/01/10 01:31:27;;;;;;;;;;;;;;;;;;1048959;28;3878;-61
2023/01/10 01:31:57;;;;;;;;;;;;;;;;;;1050009;28;2729;-60
2023/01/10 01:32:28;;;;;;;;;;;;;;;;;;1048540;28;4761;-60
2023/01/10 01:32:58;;;;;;;;;;;;;;;;;;1048186;28;2708;-60
2023/01/10 01:33:28;;;;;;;;;;;;;;;;;;1053438;28;4019;-61
2023/01/10 01:33:58;;;;;;;;;;;;;;;;;;1054513;28;3500;-60
2023/01/10 01:34:29;;;;;;;;;;;;;;;;;;1053440;28;4078;-61
2023/01/10 01:34:59;;;;;;;;;;;;;;;;;;1052144;28;3060;-60
2023/01/10 01:35:29;;;;;;;;;;;;;;;;;;1048472;28;4084;-60
2023/01/10 01:35:59;;;;;;;;;;;;;;;;;;1050488;28;2898;-60
2023/01/10 01:36:30;;;;;;;;;;;;;;;;;;1049317;28;3912;-61
2023/01/10 01:37:00;;;;;;;;;;;;;;;;;;1048256;28;3225;-60
2023/01/10 01:37:30;;;;;;;;;;;;;;;;;;1047706;28;4162;-60
2023/01/10 01:38:01;;;;;;;;;;;;;;;;;;1047839;28;1626;-60
2023/01/10 01:38:31;;;;;;;;;;;;;;;;;;1046333;28;4029;-60
2023/01/10 01:39:02;;;;;;;;;;;;;;;;;;1048860;28;3311;-61
2023/01/10 01:39:32;;;;;;;;;;;;;;;;;;1048293;28;4019;-61
2023/01/10 01:40:03;;;;;;;;;;;;;;;;;;1051732;28;1753;-60
2023/01/10 01:40:33;;;;;;;;;;;;;;;;;;1048920;28;3801;-60
2023/01/10 01:41:55;;;;;;;;;;;;;;;;;;1046554;28;2905;-61
2023/01/10 01:41:57;;;;;;;;;;;;;;;;;;1050087;28;3948;-60
2023/01/10 01:42:38;;;;;;;;;;;;;;;;;;1046068;28;3807;-61
2023/01/10 01:43:20;;;;;;;;;;;;;;;;;;1046775;28;3821;-60
2023/01/10 01:44:01;;;;;;;;;;;;;;;;;;1048522;28;2009;-60
2023/01/10 01:44:34;;;;;;;;;;;;;;;;;;1047435;28;4083;-60
2023/01/10 01:45:07;;;;;;;;;;;;;;;;;;1046952;28;2370;-60
2023/01/10 01:45:38;;;;;;;;;;;;;;;;;;1047804;28;3723;-61
2023/01/10 01:46:08;;;;;;;;;;;;;;;;;;1050097;28;3795;-60
2023/01/10 01:46:39;;;;;;;;;;;;;;;;;;1050289;28;2992;-60
2023/01/10 01:47:24;;;;;;;;;;;;;;;;;;1047805;28;4059;-60
2023/01/10 01:47:56;;;;;;;;;;;;;;;;;;1046659;28;3076;-60
2023/01/10 01:48:29;;;;;;;;;;;;;;;;;;1046745;28;4268;-60
2023/01/10 01:49:00;;;;;;;;;;;;;;;;;;1047792;28;1692;-61
2023/01/10 01:49:33;;;;;;;;;;;;;;;;;;1046856;28;4069;-60
2023/01/10 01:50:04;;;;;;;;;;;;;;;;;;1051767;28;3035;-61
2023/01/10 01:50:52;;;;;;;;;;;;;;;;;;1053548;28;4204;-61
2023/01/10 01:51:25;;;;;;;;;;;;;;;;;;1051966;28;4046;-60
2023/01/10 01:51:58;;;;;;;;;;;;;;;;;;1049059;28;1776;-61
2023/01/10 01:52:30;;;;;;;;;;;;;;;;;;1049979;28;3915;-61
2023/01/10 01:53:02;;;;;;;;;;;;;;;;;;1049383;28;2780;-60
2023/01/10 01:53:35;;;;;;;;;;;;;;;;;;1047830;28;3761;-61
2023/01/10 01:54:07;;;;;;;;;;;;;;;;;;1047609;28;1783;-61
2023/01/10 01:54:38;;;;;;;;;;;;;;;;;;1046573;28;3656;-60
2023/01/10 01:55:09;;;;;;;;;;;;;;;;;;1047008;28;3965;-60
2023/01/10 01:55:47;;;;;;;;;;;;;;;;;;1048345;28;1938;-60
2023/01/10 01:56:17;;;;;;;;;;;;;;;;;;1045974;28;3962;-60
2023/01/10 01:56:50;;;;;;;;;;;;;;;;;;1047918;28;2849;-60
2023/01/10 01:57:23;;;;;;;;;;;;;;;;;;1048019;28;4052;-61
2023/01/10 01:57:55;;;;;;;;;;;;;;;;;;1048854;28;2156;-61
2023/01/10 01:58:45;;;;;;;;;;;;;;;;;;1047884;28;4348;-60
2023/01/10 01:59:22;;;;;;;;;;;;;;;;;;1043504;28;4230;-60
2023/01/10 01:59:53;;;;;;;;;;;;;;;;;;1047364;28;2424;-61
2023/01/10 02:00:24;;;;;;;;;;;;;;;;;;1046163;28;3821;-61
2023/01/10 02:00:54;;;;;;;;;;;;;;;;;;1050117;28;1762;-60
2023/01/10 02:01:25;;;;;;;;;;;;;;;;;;1045082;28;3935;-61
2023/01/10 02:01:59;;;;;;;;;;;;;;;;;;1048396;28;2774;-59
2023/01/10 02:02:33;;;;;;;;;;;;;;;;;;1047440;28;3796;-61
2023/01/10 02:03:04;;;;;;;;;;;;;;;;;;1047979;28;3233;-60
2023/01/10 02:03:36;;;;;;;;;;;;;;;;;;1046656;28;4056;-61
2023/01/10 02:04:12;;;;;;;;;;;;;;;;;;1048327;28;3084;-60
2023/01/10 02:04:47;;;;;;;;;;;;;;;;;;1048722;28;3774;-60
2023/01/10 02:05:18;;;;;;;;;;;;;;;;;;1049297;28;4015;-61
2023/01/10 02:05:48;;;;;;;;;;;;;;;;;;1050245;28;2338;-60
2023/01/10 02:06:22;;;;;;;;;;;;;;;;;;1046844;28;4050;-61
2023/01/10 02:06:53;;;;;;;;;;;;;;;;;;1048917;28;2635;-60
2023/01/10 02:07:24;;;;;;;;;;;;;;;;;;1047009;28;3976;-61
2023/01/10 02:07:56;;;;;;;;;;;;;;;;;;1048823;28;2726;-60
2023/01/10 02:08:27;;;;;;;;;;;;;;;;;;1049245;28;4233;-60
2023/01/10 02:09:17;;;;;;;;;;;;;;;;;;1048480;28;2944;-60
2023/01/10 02:09:54;;;;;;;;;;;;;;;;;;1046758;28;3997;-60
2023/01/10 02:10:28;;;;;;;;;;;;;;;;;;1047860;28;3869;-60
2023/01/10 02:11:09;;;;;;;;;;;;;;;;;;1048670;28;2684;-60
2023/01/10 02:11:39;;;;;;;;;;;;;;;;;;1048342;28;4104;-61
2023/01/10 02:12:10;;;;;;;;;;;;;;;;;;1047679;28;3778;-60
2023/01/10 02:12:41;;;;;;;;;;;;;;;;;;1042588;28;2099;-60
2023/01/10 02:13:13;;;;;;;;;;;;;;;;;;1043272;28;4556;-60
2023/01/10 02:13:44;;;;;;;;;;;;;;;;;;1047011;28;1914;-60
2023/01/10 02:14:15;;;;;;;;;;;;;;;;;;1047135;28;4062;-61
2023/01/10 02:14:48;;;;;;;;;;;;;;;;;;1049622;28;2643;-60
2023/01/10 02:15:18;;;;;;;;;;;;;;;;;;1048005;28;4882;-60
2023/01/10 02:15:49;;;;;;;;;;;;;;;;;;1048394;28;2798;-60
2023/01/10 02:16:19;;;;;;;;;;;;;;;;;;1046903;28;4192;-61
2023/01/10 02:16:49;;;;;;;;;;;;;;;;;;1049441;28;2786;-60
2023/01/10 02:17:20;;;;;;;;;;;;;;;;;;1047447;28;3907;-60
2023/01/10 02:17:50;;;;;;;;;;;;;;;;;;1047262;28;2928;-60
2023/01/10 02:18:21;;;;;;;;;;;;;;;;;;1045821;28;3889;-60
2023/01/10 02:18:52;;;;;;;;;;;;;;;;;;1048869;28;2800;-60
2023/01/10 02:19:37;;;;;;;;;;;;;;;;;;1048300;28;3882;-60
2023/01/10 02:20:09;;;;;;;;;;;;;;;;;;1047273;28;3002;-61
2023/01/10 02:20:46;;;;;;;;;;;;;;;;;;1047008;28;3940;-60
2023/01/10 02:21:25;;;;;;;;;;;;;;;;;;1050719;28;3836;-61
2023/01/10 02:22:13;;;;;;;;;;;;;;;;;;1050861;28;2388;-60
2023/01/10 02:23:01;;;;;;;;;;;;;;;;;;1047660;28;3971;-60
2023/01/10 02:23:43;;;;;;;;;;;;;;;;;;1047556;28;3963;-61
2023/01/10 02:24:13;;;;;;;;;;;;;;;;;;1047097;28;4033;-59
2023/01/10 02:24:49;;;;;;;;;;;;;;;;;;1049540;28;2929;-60
2023/01/10 02:25:29;;;;;;;;;;;;;;;;;;1052228;28;4199;-60
2023/01/10 02:26:17;;;;;;;;;;;;;;;;;;1049102;28;3009;-61
2023/01/10 02:27:02;;;;;;;;;;;;;;;;;;1048693;28;3793;-60
2023/01/10 02:27:42;;;;;;;;;;;;;;;;;;1048408;28;4182;-60
2023/01/10 02:28:15;;;;;;;;;;;;;;;;;;1050762;28;3964;-60
2023/01/10 02:29:03;;;;;;;;;;;;;;;;;;1051331;28;1625;-61
2023/01/10 02:29:37;;;;;;;;;;;;;;;;;;1047644;28;3869;-60
2023/01/10 02:30:16;;;;;;;;;;;;;;;;;;1045751;28;2662;-60
2023/01/10 02:30:56;;;;;;;;;;;;;;;;;;1048871;28;4169;-60
2023/01/10 02:31:45;;;;;;;;;;;;;;;;;;1048736;28;4268;-61
2023/01/10 02:32:18;;;;;;;;;;;;;;;;;;1049303;28;4015;-61
2023/01/10 02:32:59;;;;;;;;;;;;;;;;;;1049656;28;2798;-61
2023/01/10 02:33:33;;;;;;;;;;;;;;;;;;1048507;28;4313;-60
2023/01/10 02:34:08;;;;;;;;;;;;;;;;;;1049187;28;1995;-60
2023/01/10 02:34:46;;;;;;;;;;;;;;;;;;1049285;28;3922;-60
2023/01/10 02:35:27;;;;;;;;;;;;;;;;;;1049326;28;4258;-61
2023/01/10 02:35:58;;;;;;;;;;;;;;;;;;1051623;28;1744;-61
2023/01/10 02:36:40;;;;;;;;;;;;;;;;;;1049732;28;4125;-61
2023/01/10 02:37:16;;;;;;;;;;;;;;;;;;1047716;28;4217;-60
2023/01/10 02:38:05;;;;;;;;;;;;;;;;;;1048756;28;3117;-60
2023/01/10 02:38:51;;;;;;;;;;;;;;;;;;1048693;28;3952;-60
2023/01/10 02:39:38;;;;;;;;;;;;;;;;;;1051197;28;3802;-60
2023/01/10 02:40:14;;;;;;;;;;;;;;;;;;1047685;28;4057;-60
2023/01/10 02:40:51;;;;;;;;;;;;;;;;;;1050084;28;2674;-60
2023/01/10 02:41:24;;;;;;;;;;;;;;;;;;1046947;28;3831;-60
2023/01/10 02:41:54;;;;;;;;;;;;;;;;;;1049695;28;2741;-60
2023/01/10 02:42:38;;;;;;;;;;;;;;;;;;1049833;28;4001;-60
2023/01/10 02:43:18;;;;;;;;;;;;;;;;;;1054618;28;4177;-60
2023/01/10 02:44:21;;;;;;;;;;;;;;;;;;1052905;28;2769;-60
2023/01/10 02:45:01;;;;;;;;;;;;;;;;;;1027575;28;4297;-60
2023/01/10 02:45:40;;;;;;;;;;;;;;;;;;1026781;28;3952;-60
2023/01/10 02:46:31;;;;;;;;;;;;;;;;;;1053987;28;4284;-61
2023/01/10 02:47:02;;;;;;;;;;;;;;;;;;1052706;28;2425;-61
2023/01/10 02:47:36;;;;;;;;;;;;;;;;;;1052019;28;4531;-59
2023/01/10 02:48:06;;;;;;;;;;;;;;;;;;1054424;27;2473;-60
2023/01/10 02:48:37;;;;;;;;;;;;;;;;;;1053964;28;4064;-60
2023/01/10 02:49:07;;;;;;;;;;;;;;;;;;1054732;28;2118;-61
2023/01/10 02:49:42;;;;;;;;;;;;;;;;;;1055900;28;4177;-60
2023/01/10 02:50:30;;;;;;;;;;;;;;;;;;1053368;27;4248;-60
2023/01/10 02:51:03;;;;;;;;;;;;;;;;;;1053853;28;1917;-61
2023/01/10 02:51:33;;;;;;;;;;;;;;;;;;1052343;28;4247;-61
2023/01/10 02:52:12;;;;;;;;;;;;;;;;;;1053703;28;4523;-60
2023/01/10 02:52:42;;;;;;;;;;;;;;;;;;1054380;28;2333;-61
2023/01/10 02:53:25;;;;;;;;;;;;;;;;;;1052692;28;3973;-60
2023/01/10 02:54:10;;;;;;;;;;;;;;;;;;1053551;28;2233;-60
2023/01/10 02:54:41;;;;;;;;;;;;;;;;;;1053262;28;3817;-61
2023/01/10 02:55:11;;;;;;;;;;;;;;;;;;1052557;28;4070;-60
2023/01/10 02:56:02;;;;;;;;;;;;;;;;;;1052300;28;2773;-60
2023/01/10 02:56:42;;;;;;;;;;;;;;;;;;1048549;28;4040;-60
2023/01/10 02:57:23;;;;;;;;;;;;;;;;;;1047212;28;5284;-60
2023/01/10 02:58:02;;;;;;;;;;;;;;;;;;1050197;28;2860;-60
2023/01/10 02:58:43;;;;;;;;;;;;;;;;;;1054141;28;3984;-61
2023/01/10 02:59:16;;;;;;;;;;;;;;;;;;1052552;28;3881;-61
2023/01/10 03:00:00;;;;;;;;;;;;;;;;;;1052468;28;1896;-60
2023/01/10 03:00:30;;;;;;;;;;;;;;;;;;1053630;28;4135;-60
2023/01/10 03:01:10;;;;;;;;;;;;;;;;;;1052480;28;2955;-60
2023/01/10 03:01:55;;;;;;;;;;;;;;;;;;1054087;28;3708;-60
2023/01/10 03:02:25;;;;;;;;;;;;;;;;;;1054815;28;4773;-60
2023/01/10 03:03:01;;;;;;;;;;;;;;;;;;1052193;28;2806;-60
2023/01/10 03:03:34;;;;;;;;;;;;;;;;;;1053051;28;3980;-61
2023/01/10 03:04:44;;;;;;;;;;;;;;;;;;1052165;28;2103;-60
2023/01/10 03:05:14;;;;;;;;;;;;;;;;;;1034543;28;4893;-61
2023/01/10 03:05:59;;;;;;;;;;;;;;;;;;1037041;28;2752;-61
2023/01/10 03:06:29;;;;;;;;;;;;;;;;;;1034758;28;4054;-60
2023/01/10 03:07:12;;;;;;;;;;;;;;;;;;1036467;28;2031;-61
2023/01/10 03:07:52;;;;;;;;;;;;;;;;;;1034644;28;3882;-60
2023/01/10 03:08:34;;;;;;;;;;;;;;;;;;1035079;28;4010;-60
2023/01/10 03:09:23;;;;;;;;;;;;;;;;;;1036739;28;2013;-61
2023/01/10 03:10:16;;;;;;;;;;;;;;;;;;1037690;28;5149;-61
2023/01/10 03:10:55;;;;;;;;;;;;;;;;;;1033813;28;3965;-60
2023/01/10 03:11:41;;;;;;;;;;;;;;;;;;1050613;28;4506;-60
2023/01/10 03:12:22;;;;;;;;;;;;;;;;;;1055166;28;4379;-61
2023/01/10 03:12:56;;;;;;;;;;;;;;;;;;1053580;28;2423;-60
2023/01/10 03:13:39;;;;;;;;;;;;;;;;;;1054251;28;3911;-60
2023/01/10 03:14:13;;;;;;;;;;;;;;;;;;1053509;28;3805;-59
2023/01/10 03:14:44;;;;;;;;;;;;;;;;;;1052801;28;3086;-60
2023/01/10 03:15:15;;;;;;;;;;;;;;;;;;1052552;28;4033;-60
2023/01/10 03:15:47;;;;;;;;;;;;;;;;;;1053365;28;2601;-60
2023/01/10 03:16:20;;;;;;;;;;;;;;;;;;1051932;28;4108;-61
2023/01/10 03:17:03;;;;;;;;;;;;;;;;;;1052110;28;2974;-60
2023/01/10 03:17:35;;;;;;;;;;;;;;;;;;1050691;27;3868;-61
2023/01/10 03:18:20;;;;;;;;;;;;;;;;;;1052308;28;2757;-61
2023/01/10 03:18:59;;;;;;;;;;;;;;;;;;1051483;28;3837;-60
2023/01/10 03:19:32;;;;;;;;;;;;;;;;;;1052848;28;3962;-60
2023/01/10 03:20:04;;;;;;;;;;;;;;;;;;1054808;28;3090;-60
2023/01/10 03:20:36;;;;;;;;;;;;;;;;;;1052591;28;3772;-60
2023/01/10 03:21:06;;;;;;;;;;;;;;;;;;1052526;28;3052;-61
2023/01/10 03:21:38;;;;;;;;;;;;;;;;;;1051432;28;3970;-59
2023/01/10 03:22:09;;;;;;;;;;;;;;;;;;1050216;28;4383;-60
2023/01/10 03:22:41;;;;;;;;;;;;;;;;;;1052535;28;2874;-61
2023/01/10 03:23:12;;;;;;;;;;;;;;;;;;1052038;28;4136;-60
2023/01/10 03:23:44;;;;;;;;;;;;;;;;;;1052398;28;3094;-61
2023/01/10 03:24:19;;;;;;;;;;;;;;;;;;1052293;28;4022;-60
2023/01/10 03:24:51;;;;;;;;;;;;;;;;;;1053269;28;2559;-61
2023/01/10 03:25:25;;;;;;;;;;;;;;;;;;1053392;28;4012;-61
2023/01/10 03:25:56;;;;;;;;;;;;;;;;;;1053632;28;2970;-60
2023/01/10 03:26:29;;;;;;;;;;;;;;;;;;1053068;28;3993;-61
2023/01/10 03:27:06;;;;;;;;;;;;;;;;;;1054895;28;2488;-60
2023/01/10 03:27:36;;;;;;;;;;;;;;;;;;1051424;28;4016;-60
2023/01/10 03:28:10;;;;;;;;;;;;;;;;;;1051305;28;2465;-61
2023/01/10 03:28:44;;;;;;;;;;;;;;;;;;1052702;28;3905;-61
2023/01/10 03:29:18;;;;;;;;;;;;;;;;;;1054825;28;3988;-60
2023/01/10 03:29:51;;;;;;;;;;;;;;;;;;1053482;28;3194;-61
2023/01/10 03:30:35;;;;;;;;;;;;;;;;;;1052987;28;4052;-60
2023/01/10 03:31:20;;;;;;;;;;;;;;;;;;1052881;28;2926;-61
2023/01/10 03:31:53;;;;;;;;;;;;;;;;;;1048126;28;4254;-60
2023/01/10 03:32:25;;;;;;;;;;;;;;;;;;1047845;28;3862;-60
2023/01/10 03:32:56;;;;;;;;;;;;;;;;;;1047828;28;1607;-60
2023/01/10 03:33:28;;;;;;;;;;;;;;;;;;1044061;28;4466;-60
2023/01/10 03:33:58;;;;;;;;;;;;;;;;;;1049178;28;3088;-60
2023/01/10 03:34:30;;;;;;;;;;;;;;;;;;1046856;28;3934;-60
2023/01/10 03:35:01;;;;;;;;;;;;;;;;;;1047708;28;1771;-60
2023/01/10 03:35:49;;;;;;;;;;;;;;;;;;1050974;28;4436;-60
2023/01/10 03:36:22;;;;;;;;;;;;;;;;;;1051362;28;4342;-60
2023/01/10 03:37:07;;;;;;;;;;;;;;;;;;1052146;28;1875;-60
2023/01/10 03:37:48;;;;;;;;;;;;;;;;;;1051202;28;4104;-60
2023/01/10 03:38:27;;;;;;;;;;;;;;;;;;1054058;28;4359;-61
2023/01/10 03:39:06;;;;;;;;;;;;;;;;;;1054671;28;2807;-60
2023/01/10 03:39:53;;;;;;;;;;;;;;;;;;1053253;28;4173;-60
2023/01/10 03:40:26;;;;;;;;;;;;;;;;;;1053727;27;4217;-60
2023/01/10 03:41:05;;;;;;;;;;;;;;;;;;1051666;28;3169;-60
2023/01/10 03:41:46;;;;;;;;;;;;;;;;;;1052412;28;3734;-60
2023/01/10 03:45:07;;;;;;;;;;;;;;;;;;1055093;28;3799;-61
2023/01/10 03:45:58;;;;;;;;;;;;;;;;;;1054920;28;3942;-60
2023/01/10 03:46:35;;;;;;;;;;;;;;;;;;1052622;28;4375;-60
2023/01/10 03:47:20;;;;;;;;;;;;;;;;;;1054202;28;1879;-61
2023/01/10 03:47:52;;;;;;;;;;;;;;;;;;1048850;28;3883;-60
2023/01/10 03:48:25;;;;;;;;;;;;;;;;;;1048893;28;4058;-60
2023/01/10 03:48:56;;;;;;;;;;;;;;;;;;1048812;28;2785;-61
2023/01/10 03:49:27;;;;;;;;;;;;;;;;;;1048813;28;4189;-61
2023/01/10 03:50:09;;;;;;;;;;;;;;;;;;1052102;28;2112;-60
2023/01/10 03:50:39;;;;;;;;;;;;;;;;;;1054459;28;4019;-61
2023/01/10 03:51:11;;;;;;;;;;;;;;;;;;1052889;28;3911;-60
2023/01/10 03:51:41;;;;;;;;;;;;;;;;;;1053367;28;3259;-61
2023/01/10 03:52:13;;;;;;;;;;;;;;;;;;1051672;28;4299;-60
2023/01/10 03:52:44;;;;;;;;;;;;;;;;;;1052905;28;2911;-60
2023/01/10 03:53:14;;;;;;;;;;;;;;;;;;1052443;28;4025;-61
2023/01/10 03:53:45;;;;;;;;;;;;;;;;;;1051981;28;2939;-61
2023/01/10 03:54:15;;;;;;;;;;;;;;;;;;1046740;28;3977;-60
2023/01/10 03:54:46;;;;;;;;;;;;;;;;;;1049874;28;3149;-61
2023/01/10 03:55:19;;;;;;;;;;;;;;;;;;1047747;28;5203;-61
2023/01/10 03:55:49;;;;;;;;;;;;;;;;;;1050025;28;2889;-60
2023/01/10 03:56:19;;;;;;;;;;;;;;;;;;1053510;28;3810;-60
2023/01/10 03:56:50;;;;;;;;;;;;;;;;;;1052104;28;2249;-61
2023/01/10 03:57:21;;;;;;;;;;;;;;;;;;1054080;28;3951;-61
2023/01/10 03:57:51;;;;;;;;;;;;;;;;;;1052585;28;2922;-61
2023/01/10 03:58:22;;;;;;;;;;;;;;;;;;1053310;28;3834;-60
2023/01/10 03:58:52;;;;;;;;;;;;;;;;;;1052723;28;2896;-60
2023/01/10 03:59:26;;;;;;;;;;;;;;;;;;1051641;28;4407;-60
2023/01/10 03:59:57;;;;;;;;;;;;;;;;;;1051843;28;1771;-60
2023/01/10 04:00:28;;;;;;;;;;;;;;;;;;1050408;28;4034;-61
2023/01/10 04:00:58;;;;;;;;;;;;;;;;;;1052481;28;2961;-60
2023/01/10 04:01:28;;;;;;;;;;;;;;;;;;1050768;28;4403;-60
2023/01/10 04:01:58;;;;;;;;;;;;;;;;;;1054915;28;2683;-60
2023/01/10 04:02:30;;;;;;;;;;;;;;;;;;1051014;28;3957;-61
2023/01/10 04:03:08;;;;;;;;;;;;;;;;;;1053386;28;2874;-60
2023/01/10 04:03:38;;;;;;;;;;;;;;;;;;1052647;28;3976;-60